sensor_id;sensor_type;location;lat;lon;timestamp;P1;durP1;ratioP1;P2;durP2;ratioP2
42600;SDS011;28229;48.856;9.088;2023-02-03T00:01:06;1.93;;;1.20;;
42600;SDS011;28229;48.856;9.088;2023-02-03T00:03:32;1.40;;;1.30;;
42600;SDS011;28229;48.856;9.088;2023-02-03T00:05:59;2.30;;;1.17;;
42600;SDS011;28229;48.856;9.088;2023-02-03T00:08:26;2.87;;;1.43;;
42600;SDS011;28229;48.856;9.088;2023-02-03T00:10:52;2.10;;;1.37;;
42600;SDS011;28229;48.856;9.088;2023-02-03T00:13:19;1.30;;;1.20;;
42600;SDS011;28229;48.856;9.088;2023-02-03T00:15:45;2.30;;;1.30;;
42600;SDS011;28229;48.856;9.088;2023-02-03T00:18:11;4.00;;;1.50;;
42600;SDS011;28229;48.856;9.088;2023-02-03T00:20:37;2.03;;;1.30;;
42600;SDS011;28229;48.856;9.088;2023-02-03T00:23:08;1.70;;;1.60;;
42600;SDS011;28229;48.856;9.088;2023-02-03T00:25:36;1.73;;;1.50;;
42600;SDS011;28229;48.856;9.088;2023-02-03T00:28:05;1.53;;;1.30;;
42600;SDS011;28229;48.856;9.088;2023-02-03T00:30:35;1.73;;;1.40;;
42600;SDS011;28229;48.856;9.088;2023-02-03T00:33:02;1.47;;;1.30;;
42600;SDS011;28229;48.856;9.088;2023-02-03T00:35:29;1.53;;;1.37;;
42600;SDS011;28229;48.856;9.088;2023-02-03T00:37:57;2.57;;;1.40;;
42600;SDS011;28229;48.856;9.088;2023-02-03T00:40:24;2.13;;;1.60;;
42600;SDS011;28229;48.856;9.088;2023-02-03T00:42:51;2.93;;;1.70;;
42600;SDS011;28229;48.856;9.088;2023-02-03T00:45:18;2.43;;;1.50;;
42600;SDS011;28229;48.856;9.088;2023-02-03T00:47:44;2.10;;;1.90;;
42600;SDS011;28229;48.856;9.088;2023-02-03T00:50:10;3.60;;;1.63;;
42600;SDS011;28229;48.856;9.088;2023-02-03T00:52:36;3.40;;;1.60;;
42600;SDS011;28229;48.856;9.088;2023-02-03T00:55:03;4.20;;;1.93;;
42600;SDS011;28229;48.856;9.088;2023-02-03T00:57:29;2.37;;;1.67;;
42600;SDS011;28229;48.856;9.088;2023-02-03T00:59:56;2.13;;;1.50;;
42600;SDS011;28229;48.856;9.088;2023-02-03T01:02:23;1.80;;;1.57;;
42600;SDS011;28229;48.856;9.088;2023-02-03T01:04:51;2.40;;;1.83;;
42600;SDS011;28229;48.856;9.088;2023-02-03T01:07:17;2.60;;;2.00;;
42600;SDS011;28229;48.856;9.088;2023-02-03T01:09:44;1.90;;;1.80;;
42600;SDS011;28229;48.856;9.088;2023-02-03T01:12:10;3.43;;;2.03;;
42600;SDS011;28229;48.856;9.088;2023-02-03T01:14:36;2.10;;;1.90;;
42600;SDS011;28229;48.856;9.088;2023-02-03T01:17:03;3.47;;;1.77;;
42600;SDS011;28229;48.856;9.088;2023-02-03T01:19:29;5.50;;;1.93;;
42600;SDS011;28229;48.856;9.088;2023-02-03T01:21:55;2.20;;;2.00;;
42600;SDS011;28229;48.856;9.088;2023-02-03T01:24:22;2.00;;;1.80;;
42600;SDS011;28229;48.856;9.088;2023-02-03T01:26:48;3.27;;;2.07;;
42600;SDS011;28229;48.856;9.088;2023-02-03T01:29:14;1.93;;;1.73;;
42600;SDS011;28229;48.856;9.088;2023-02-03T01:31:40;1.70;;;1.60;;
42600;SDS011;28229;48.856;9.088;2023-02-03T01:34:10;2.43;;;2.00;;
42600;SDS011;28229;48.856;9.088;2023-02-03T01:36:38;3.43;;;1.90;;
42600;SDS011;28229;48.856;9.088;2023-02-03T01:39:05;2.23;;;1.90;;
42600;SDS011;28229;48.856;9.088;2023-02-03T01:41:32;2.97;;;1.70;;
42600;SDS011;28229;48.856;9.088;2023-02-03T01:44:01;2.80;;;1.73;;
42600;SDS011;28229;48.856;9.088;2023-02-03T01:46:48;2.87;;;1.90;;
42600;SDS011;28229;48.856;9.088;2023-02-03T01:49:19;1.80;;;1.47;;
42600;SDS011;28229;48.856;9.088;2023-02-03T01:51:50;2.00;;;1.83;;
42600;SDS011;28229;48.856;9.088;2023-02-03T01:54:20;1.70;;;1.60;;
42600;SDS011;28229;48.856;9.088;2023-02-03T01:56:56;3.00;;;1.93;;
42600;SDS011;28229;48.856;9.088;2023-02-03T01:59:26;1.80;;;1.50;;
42600;SDS011;28229;48.856;9.088;2023-02-03T02:01:55;3.47;;;1.80;;
42600;SDS011;28229;48.856;9.088;2023-02-03T02:04:23;1.60;;;1.50;;
42600;SDS011;28229;48.856;9.088;2023-02-03T02:06:55;2.47;;;1.70;;
42600;SDS011;28229;48.856;9.088;2023-02-03T02:09:23;2.20;;;1.53;;
42600;SDS011;28229;48.856;9.088;2023-02-03T02:11:51;1.87;;;1.30;;
42600;SDS011;28229;48.856;9.088;2023-02-03T02:14:17;1.87;;;1.57;;
42600;SDS011;28229;48.856;9.088;2023-02-03T02:16:49;2.17;;;1.43;;
42600;SDS011;28229;48.856;9.088;2023-02-03T02:22:25;2.47;;;1.53;;
42600;SDS011;28229;48.856;9.088;2023-02-03T02:41:38;1.77;;;1.30;;
42600;SDS011;28229;48.856;9.088;2023-02-03T02:44:11;1.13;;;1.03;;
42600;SDS011;28229;48.856;9.088;2023-02-03T02:46:45;1.70;;;1.30;;
42600;SDS011;28229;48.856;9.088;2023-02-03T02:51:42;1.30;;;1.20;;
42600;SDS011;28229;48.856;9.088;2023-02-03T02:54:16;1.70;;;1.10;;
42600;SDS011;28229;48.856;9.088;2023-02-03T02:56:47;2.27;;;1.10;;
42600;SDS011;28229;48.856;9.088;2023-02-03T02:59:19;1.13;;;1.00;;
42600;SDS011;28229;48.856;9.088;2023-02-03T03:01:45;1.17;;;0.90;;
42600;SDS011;28229;48.856;9.088;2023-02-03T03:04:12;0.80;;;0.80;;
42600;SDS011;28229;48.856;9.088;2023-02-03T03:06:46;1.00;;;1.00;;
42600;SDS011;28229;48.856;9.088;2023-02-03T03:09:21;0.90;;;0.90;;
42600;SDS011;28229;48.856;9.088;2023-02-03T03:11:53;0.97;;;0.90;;
42600;SDS011;28229;48.856;9.088;2023-02-03T03:14:24;0.87;;;0.80;;
42600;SDS011;28229;48.856;9.088;2023-02-03T03:16:53;1.07;;;0.90;;
42600;SDS011;28229;48.856;9.088;2023-02-03T03:19:28;1.13;;;1.00;;
42600;SDS011;28229;48.856;9.088;2023-02-03T03:22:03;0.80;;;0.80;;
42600;SDS011;28229;48.856;9.088;2023-02-03T03:24:39;0.50;;;0.50;;
42600;SDS011;28229;48.856;9.088;2023-02-03T03:27:29;1.50;;;0.80;;
42600;SDS011;28229;48.856;9.088;2023-02-03T03:30:02;0.80;;;0.80;;
42600;SDS011;28229;48.856;9.088;2023-02-03T03:32:50;1.00;;;0.77;;
42600;SDS011;28229;48.856;9.088;2023-02-03T03:35:16;1.33;;;0.77;;
42600;SDS011;28229;48.856;9.088;2023-02-03T03:37:44;0.93;;;0.77;;
42600;SDS011;28229;48.856;9.088;2023-02-03T03:40:25;0.70;;;0.70;;
42600;SDS011;28229;48.856;9.088;2023-02-03T03:42:56;1.43;;;0.80;;
42600;SDS011;28229;48.856;9.088;2023-02-03T03:46:12;1.40;;;0.87;;
42600;SDS011;28229;48.856;9.088;2023-02-03T03:48:37;0.87;;;0.80;;
42600;SDS011;28229;48.856;9.088;2023-02-03T03:51:17;0.70;;;0.70;;
42600;SDS011;28229;48.856;9.088;2023-02-03T03:53:48;0.80;;;0.80;;
42600;SDS011;28229;48.856;9.088;2023-02-03T03:56:20;0.80;;;0.80;;
42600;SDS011;28229;48.856;9.088;2023-02-03T03:58:52;0.80;;;0.80;;
42600;SDS011;28229;48.856;9.088;2023-02-03T04:01:20;1.10;;;0.80;;
42600;SDS011;28229;48.856;9.088;2023-02-03T04:03:49;0.80;;;0.80;;
42600;SDS011;28229;48.856;9.088;2023-02-03T04:06:20;0.80;;;0.80;;
42600;SDS011;28229;48.856;9.088;2023-02-03T04:08:46;0.87;;;0.80;;
42600;SDS011;28229;48.856;9.088;2023-02-03T04:11:12;1.00;;;0.80;;
42600;SDS011;28229;48.856;9.088;2023-02-03T04:13:58;0.80;;;0.80;;
42600;SDS011;28229;48.856;9.088;2023-02-03T04:16:25;1.17;;;1.10;;
42600;SDS011;28229;48.856;9.088;2023-02-03T04:18:51;3.73;;;0.83;;
42600;SDS011;28229;48.856;9.088;2023-02-03T04:21:17;0.93;;;0.93;;
42600;SDS011;28229;48.856;9.088;2023-02-03T04:23:43;1.13;;;1.03;;
42600;SDS011;28229;48.856;9.088;2023-02-03T04:26:09;1.33;;;1.00;;
42600;SDS011;28229;48.856;9.088;2023-02-03T04:28:35;1.47;;;1.10;;
42600;SDS011;28229;48.856;9.088;2023-02-03T04:31:01;1.43;;;1.20;;
42600;SDS011;28229;48.856;9.088;2023-02-03T04:33:27;0.90;;;0.90;;
42600;SDS011;28229;48.856;9.088;2023-02-03T04:35:54;2.23;;;1.10;;
42600;SDS011;28229;48.856;9.088;2023-02-03T04:38:20;1.13;;;1.10;;
42600;SDS011;28229;48.856;9.088;2023-02-03T04:40:46;1.20;;;1.10;;
42600;SDS011;28229;48.856;9.088;2023-02-03T04:43:12;0.97;;;0.90;;
42600;SDS011;28229;48.856;9.088;2023-02-03T04:45:39;1.33;;;1.00;;
42600;SDS011;28229;48.856;9.088;2023-02-03T04:48:05;1.00;;;0.90;;
42600;SDS011;28229;48.856;9.088;2023-02-03T04:50:32;0.70;;;0.70;;
42600;SDS011;28229;48.856;9.088;2023-02-03T04:52:58;1.03;;;0.93;;
42600;SDS011;28229;48.856;9.088;2023-02-03T04:55:28;0.90;;;0.90;;
42600;SDS011;28229;48.856;9.088;2023-02-03T04:57:54;0.87;;;0.87;;
42600;SDS011;28229;48.856;9.088;2023-02-03T05:00:21;1.07;;;0.90;;
42600;SDS011;28229;48.856;9.088;2023-02-03T05:02:47;3.23;;;1.10;;
42600;SDS011;28229;48.856;9.088;2023-02-03T05:05:14;1.27;;;1.00;;
42600;SDS011;28229;48.856;9.088;2023-02-03T05:07:54;0.90;;;0.90;;
42600;SDS011;28229;48.856;9.088;2023-02-03T05:10:23;1.63;;;0.80;;
42600;SDS011;28229;48.856;9.088;2023-02-03T05:12:49;1.57;;;0.77;;
42600;SDS011;28229;48.856;9.088;2023-02-03T05:15:15;1.10;;;0.70;;
42600;SDS011;28229;48.856;9.088;2023-02-03T05:17:42;0.73;;;0.73;;
42600;SDS011;28229;48.856;9.088;2023-02-03T05:20:08;1.33;;;1.00;;
42600;SDS011;28229;48.856;9.088;2023-02-03T05:22:35;1.33;;;1.00;;
42600;SDS011;28229;48.856;9.088;2023-02-03T05:25:02;1.33;;;1.10;;
42600;SDS011;28229;48.856;9.088;2023-02-03T05:27:29;1.00;;;0.90;;
42600;SDS011;28229;48.856;9.088;2023-02-03T05:29:55;1.60;;;1.07;;
42600;SDS011;28229;48.856;9.088;2023-02-03T05:32:21;2.00;;;1.10;;
42600;SDS011;28229;48.856;9.088;2023-02-03T05:34:48;1.50;;;1.30;;
42600;SDS011;28229;48.856;9.088;2023-02-03T05:37:14;1.20;;;1.10;;
42600;SDS011;28229;48.856;9.088;2023-02-03T05:39:40;1.50;;;1.40;;
42600;SDS011;28229;48.856;9.088;2023-02-03T05:42:06;2.70;;;1.37;;
42600;SDS011;28229;48.856;9.088;2023-02-03T05:44:32;1.73;;;1.10;;
42600;SDS011;28229;48.856;9.088;2023-02-03T05:46:59;1.57;;;1.10;;
42600;SDS011;28229;48.856;9.088;2023-02-03T05:49:25;1.63;;;1.10;;
42600;SDS011;28229;48.856;9.088;2023-02-03T05:51:51;3.43;;;1.20;;
42600;SDS011;28229;48.856;9.088;2023-02-03T05:54:18;3.20;;;1.30;;
42600;SDS011;28229;48.856;9.088;2023-02-03T05:56:45;1.63;;;1.33;;
42600;SDS011;28229;48.856;9.088;2023-02-03T05:59:11;1.73;;;1.50;;
42600;SDS011;28229;48.856;9.088;2023-02-03T06:01:37;1.27;;;1.17;;
42600;SDS011;28229;48.856;9.088;2023-02-03T06:04:04;1.47;;;1.37;;
42600;SDS011;28229;48.856;9.088;2023-02-03T06:06:30;1.40;;;1.30;;
42600;SDS011;28229;48.856;9.088;2023-02-03T06:09:00;1.60;;;1.40;;
42600;SDS011;28229;48.856;9.088;2023-02-03T06:11:27;2.87;;;1.97;;
42600;SDS011;28229;48.856;9.088;2023-02-03T06:13:54;1.80;;;1.40;;
42600;SDS011;28229;48.856;9.088;2023-02-03T06:16:23;1.70;;;1.30;;
42600;SDS011;28229;48.856;9.088;2023-02-03T06:18:51;2.17;;;1.10;;
42600;SDS011;28229;48.856;9.088;2023-02-03T06:21:18;2.73;;;1.40;;
42600;SDS011;28229;48.856;9.088;2023-02-03T06:23:45;3.63;;;1.50;;
42600;SDS011;28229;48.856;9.088;2023-02-03T06:58:27;1.47;;;1.27;;
42600;SDS011;28229;48.856;9.088;2023-02-03T07:00:56;1.20;;;1.10;;
42600;SDS011;28229;48.856;9.088;2023-02-03T07:03:22;1.83;;;1.17;;
42600;SDS011;28229;48.856;9.088;2023-02-03T07:05:48;1.70;;;1.17;;
42600;SDS011;28229;48.856;9.088;2023-02-03T07:08:15;2.07;;;0.90;;
42600;SDS011;28229;48.856;9.088;2023-02-03T07:10:41;2.73;;;0.97;;
42600;SDS011;28229;48.856;9.088;2023-02-03T07:13:07;1.80;;;1.13;;
42600;SDS011;28229;48.856;9.088;2023-02-03T07:15:34;2.33;;;1.30;;
42600;SDS011;28229;48.856;9.088;2023-02-03T07:18:00;3.10;;;1.60;;
42600;SDS011;28229;48.856;9.088;2023-02-03T07:20:26;3.60;;;1.63;;
42600;SDS011;28229;48.856;9.088;2023-02-03T07:22:54;3.30;;;1.80;;
42600;SDS011;28229;48.856;9.088;2023-02-03T07:25:22;2.43;;;1.70;;
42600;SDS011;28229;48.856;9.088;2023-02-03T07:27:49;1.67;;;1.50;;
42600;SDS011;28229;48.856;9.088;2023-02-03T07:30:15;2.00;;;1.50;;
42600;SDS011;28229;48.856;9.088;2023-02-03T07:33:02;1.30;;;1.20;;
42600;SDS011;28229;48.856;9.088;2023-02-03T07:35:28;3.63;;;1.10;;
42600;SDS011;28229;48.856;9.088;2023-02-03T07:37:54;2.33;;;1.10;;
42600;SDS011;28229;48.856;9.088;2023-02-03T07:40:20;1.57;;;1.10;;
42600;SDS011;28229;48.856;9.088;2023-02-03T07:42:47;1.23;;;1.13;;
42600;SDS011;28229;48.856;9.088;2023-02-03T07:45:14;3.67;;;1.10;;
42600;SDS011;28229;48.856;9.088;2023-02-03T07:47:42;1.03;;;1.03;;
42600;SDS011;28229;48.856;9.088;2023-02-03T07:50:09;1.10;;;0.97;;
42600;SDS011;28229;48.856;9.088;2023-02-03T07:52:36;1.20;;;1.10;;
42600;SDS011;28229;48.856;9.088;2023-02-03T07:55:03;2.17;;;1.40;;
42600;SDS011;28229;48.856;9.088;2023-02-03T07:57:29;0.90;;;0.90;;
42600;SDS011;28229;48.856;9.088;2023-02-03T07:59:55;2.40;;;1.30;;
42600;SDS011;28229;48.856;9.088;2023-02-03T08:02:22;4.27;;;1.20;;
42600;SDS011;28229;48.856;9.088;2023-02-03T08:04:48;3.00;;;1.20;;
42600;SDS011;28229;48.856;9.088;2023-02-03T08:07:14;2.33;;;1.20;;
42600;SDS011;28229;48.856;9.088;2023-02-03T08:09:40;2.57;;;1.20;;
42600;SDS011;28229;48.856;9.088;2023-02-03T08:12:06;1.30;;;1.20;;
42600;SDS011;28229;48.856;9.088;2023-02-03T08:14:33;1.80;;;1.40;;
42600;SDS011;28229;48.856;9.088;2023-02-03T08:16:59;2.50;;;1.20;;
42600;SDS011;28229;48.856;9.088;2023-02-03T08:19:25;1.50;;;1.27;;
42600;SDS011;28229;48.856;9.088;2023-02-03T08:21:52;1.47;;;1.00;;
42600;SDS011;28229;48.856;9.088;2023-02-03T08:24:18;0.93;;;0.90;;
42600;SDS011;28229;48.856;9.088;2023-02-03T08:26:44;1.47;;;1.20;;
42600;SDS011;28229;48.856;9.088;2023-02-03T08:29:10;0.90;;;0.90;;
42600;SDS011;28229;48.856;9.088;2023-02-03T08:31:36;1.10;;;1.00;;
42600;SDS011;28229;48.856;9.088;2023-02-03T08:34:03;1.37;;;0.90;;
42600;SDS011;28229;48.856;9.088;2023-02-03T08:36:30;5.03;;;2.67;;
42600;SDS011;28229;48.856;9.088;2023-02-03T08:38:57;2.47;;;1.50;;
42600;SDS011;28229;48.856;9.088;2023-02-03T08:41:23;3.30;;;1.60;;
42600;SDS011;28229;48.856;9.088;2023-02-03T08:43:49;1.47;;;0.90;;
42600;SDS011;28229;48.856;9.088;2023-02-03T08:46:15;1.67;;;0.97;;
42600;SDS011;28229;48.856;9.088;2023-02-03T08:48:44;1.00;;;0.97;;
42600;SDS011;28229;48.856;9.088;2023-02-03T08:51:11;1.60;;;1.13;;
42600;SDS011;28229;48.856;9.088;2023-02-03T08:53:38;2.33;;;1.10;;
42600;SDS011;28229;48.856;9.088;2023-02-03T08:56:08;1.50;;;0.70;;
42600;SDS011;28229;48.856;9.088;2023-02-03T08:58:36;1.03;;;0.90;;
42600;SDS011;28229;48.856;9.088;2023-02-03T09:01:09;2.93;;;0.90;;
42600;SDS011;28229;48.856;9.088;2023-02-03T09:03:37;0.80;;;0.80;;
42600;SDS011;28229;48.856;9.088;2023-02-03T09:06:04;1.37;;;1.13;;
42600;SDS011;28229;48.856;9.088;2023-02-03T09:08:31;1.80;;;1.23;;
42600;SDS011;28229;48.856;9.088;2023-02-03T09:10:57;1.87;;;0.97;;
42600;SDS011;28229;48.856;9.088;2023-02-03T09:13:24;1.27;;;0.97;;
42600;SDS011;28229;48.856;9.088;2023-02-03T09:15:50;1.10;;;1.00;;
42600;SDS011;28229;48.856;9.088;2023-02-03T09:18:17;1.13;;;0.93;;
42600;SDS011;28229;48.856;9.088;2023-02-03T09:20:43;1.90;;;1.03;;
42600;SDS011;28229;48.856;9.088;2023-02-03T09:23:09;0.90;;;0.90;;
42600;SDS011;28229;48.856;9.088;2023-02-03T09:25:35;2.20;;;1.13;;
42600;SDS011;28229;48.856;9.088;2023-02-03T09:28:01;1.33;;;1.10;;
42600;SDS011;28229;48.856;9.088;2023-02-03T09:30:27;0.70;;;0.70;;
42600;SDS011;28229;48.856;9.088;2023-02-03T09:33:13;0.97;;;0.80;;
42600;SDS011;28229;48.856;9.088;2023-02-03T09:35:40;1.33;;;0.80;;
42600;SDS011;28229;48.856;9.088;2023-02-03T09:38:06;1.70;;;0.90;;
42600;SDS011;28229;48.856;9.088;2023-02-03T09:40:33;0.60;;;0.60;;
42600;SDS011;28229;48.856;9.088;2023-02-03T09:43:03;0.70;;;0.70;;
42600;SDS011;28229;48.856;9.088;2023-02-03T09:45:41;1.37;;;0.90;;
42600;SDS011;28229;48.856;9.088;2023-02-03T09:48:16;0.70;;;0.60;;
42600;SDS011;28229;48.856;9.088;2023-02-03T09:50:46;1.40;;;0.63;;
42600;SDS011;28229;48.856;9.088;2023-02-03T09:53:32;0.60;;;0.60;;
42600;SDS011;28229;48.856;9.088;2023-02-03T09:56:27;0.43;;;0.43;;
42600;SDS011;28229;48.856;9.088;2023-02-03T09:58:56;1.60;;;1.10;;
42600;SDS011;28229;48.856;9.088;2023-02-03T10:01:24;0.60;;;0.60;;
42600;SDS011;28229;48.856;9.088;2023-02-03T10:07:08;0.83;;;0.70;;
42600;SDS011;28229;48.856;9.088;2023-02-03T10:10:08;0.67;;;0.60;;
42600;SDS011;28229;48.856;9.088;2023-02-03T10:18:00;0.60;;;0.60;;
42600;SDS011;28229;48.856;9.088;2023-02-03T10:23:54;1.37;;;0.80;;
42600;SDS011;28229;48.856;9.088;2023-02-03T10:26:04;0.60;;;0.60;;
42600;SDS011;28229;48.856;9.088;2023-02-03T10:28:45;0.80;;;0.63;;
42600;SDS011;28229;48.856;9.088;2023-02-03T10:31:19;0.50;;;0.50;;
42600;SDS011;28229;48.856;9.088;2023-02-03T10:33:48;0.60;;;0.60;;
42600;SDS011;28229;48.856;9.088;2023-02-03T10:36:30;2.47;;;0.70;;
42600;SDS011;28229;48.856;9.088;2023-02-03T10:39:29;0.60;;;0.60;;
42600;SDS011;28229;48.856;9.088;2023-02-03T10:41:57;1.63;;;0.80;;
42600;SDS011;28229;48.856;9.088;2023-02-03T10:44:35;0.80;;;0.63;;
42600;SDS011;28229;48.856;9.088;2023-02-03T10:49:49;0.50;;;0.50;;
42600;SDS011;28229;48.856;9.088;2023-02-03T10:52:24;0.60;;;0.43;;
42600;SDS011;28229;48.856;9.088;2023-02-03T10:55:44;2.10;;;0.60;;
42600;SDS011;28229;48.856;9.088;2023-02-03T10:57:52;3.63;;;0.67;;
42600;SDS011;28229;48.856;9.088;2023-02-03T11:03:00;2.27;;;0.40;;
42600;SDS011;28229;48.856;9.088;2023-02-03T11:05:31;0.50;;;0.50;;
42600;SDS011;28229;48.856;9.088;2023-02-03T11:07:58;0.53;;;0.53;;
42600;SDS011;28229;48.856;9.088;2023-02-03T11:15:55;0.50;;;0.50;;
42600;SDS011;28229;48.856;9.088;2023-02-03T11:21:07;0.50;;;0.50;;
42600;SDS011;28229;48.856;9.088;2023-02-03T11:23:37;2.27;;;0.50;;
42600;SDS011;28229;48.856;9.088;2023-02-03T11:26:34;0.80;;;0.80;;
42600;SDS011;28229;48.856;9.088;2023-02-03T11:29:05;0.60;;;0.60;;
42600;SDS011;28229;48.856;9.088;2023-02-03T11:31:34;0.40;;;0.40;;
42600;SDS011;28229;48.856;9.088;2023-02-03T11:34:05;1.60;;;0.53;;
42600;SDS011;28229;48.856;9.088;2023-02-03T11:36:39;0.70;;;0.70;;
42600;SDS011;28229;48.856;9.088;2023-02-03T11:39:19;0.50;;;0.50;;
42600;SDS011;28229;48.856;9.088;2023-02-03T11:41:50;2.73;;;0.70;;
42600;SDS011;28229;48.856;9.088;2023-02-03T11:44:21;0.60;;;0.60;;
42600;SDS011;28229;48.856;9.088;2023-02-03T11:46:49;0.90;;;0.57;;
42600;SDS011;28229;48.856;9.088;2023-02-03T11:52:02;0.50;;;0.50;;
42600;SDS011;28229;48.856;9.088;2023-02-03T11:57:37;2.00;;;0.93;;
42600;SDS011;28229;48.856;9.088;2023-02-03T12:19:38;0.43;;;0.43;;
42600;SDS011;28229;48.856;9.088;2023-02-03T12:27:49;0.40;;;0.40;;
42600;SDS011;28229;48.856;9.088;2023-02-03T12:30:31;0.57;;;0.57;;
42600;SDS011;28229;48.856;9.088;2023-02-03T12:33:03;0.57;;;0.57;;
42600;SDS011;28229;48.856;9.088;2023-02-03T12:35:38;0.87;;;0.63;;
42600;SDS011;28229;48.856;9.088;2023-02-03T12:41:06;1.17;;;0.53;;
42600;SDS011;28229;48.856;9.088;2023-02-03T12:43:41;1.67;;;0.70;;
42600;SDS011;28229;48.856;9.088;2023-02-03T12:48:41;0.50;;;0.50;;
42600;SDS011;28229;48.856;9.088;2023-02-03T12:51:38;0.80;;;0.67;;
42600;SDS011;28229;48.856;9.088;2023-02-03T12:57:14;0.70;;;0.70;;
42600;SDS011;28229;48.856;9.088;2023-02-03T12:59:50;0.50;;;0.50;;
42600;SDS011;28229;48.856;9.088;2023-02-03T13:02:41;1.93;;;0.73;;
42600;SDS011;28229;48.856;9.088;2023-02-03T13:05:18;0.60;;;0.60;;
42600;SDS011;28229;48.856;9.088;2023-02-03T13:07:58;0.93;;;0.70;;
42600;SDS011;28229;48.856;9.088;2023-02-03T13:10:49;0.60;;;0.60;;
42600;SDS011;28229;48.856;9.088;2023-02-03T13:13:22;0.77;;;0.60;;
42600;SDS011;28229;48.856;9.088;2023-02-03T13:15:54;0.83;;;0.50;;
42600;SDS011;28229;48.856;9.088;2023-02-03T13:18:24;0.50;;;0.50;;
42600;SDS011;28229;48.856;9.088;2023-02-03T13:20:54;0.70;;;0.70;;
42600;SDS011;28229;48.856;9.088;2023-02-03T13:23:21;0.50;;;0.50;;
42600;SDS011;28229;48.856;9.088;2023-02-03T13:25:52;1.03;;;0.70;;
42600;SDS011;28229;48.856;9.088;2023-02-03T13:37:01;0.80;;;0.60;;
42600;SDS011;28229;48.856;9.088;2023-02-03T13:39:52;0.50;;;0.50;;
42600;SDS011;28229;48.856;9.088;2023-02-03T13:44:53;0.53;;;0.53;;
42600;SDS011;28229;48.856;9.088;2023-02-03T13:47:30;0.70;;;0.70;;
42600;SDS011;28229;48.856;9.088;2023-02-03T13:49:59;1.50;;;0.50;;
42600;SDS011;28229;48.856;9.088;2023-02-03T13:52:35;0.70;;;0.60;;
42600;SDS011;28229;48.856;9.088;2023-02-03T13:55:19;0.60;;;0.60;;
42600;SDS011;28229;48.856;9.088;2023-02-03T13:57:53;0.50;;;0.50;;
42600;SDS011;28229;48.856;9.088;2023-02-03T14:03:17;0.50;;;0.50;;
42600;SDS011;28229;48.856;9.088;2023-02-03T14:06:04;1.30;;;0.70;;
42600;SDS011;28229;48.856;9.088;2023-02-03T14:08:58;0.60;;;0.60;;
42600;SDS011;28229;48.856;9.088;2023-02-03T14:16:33;0.50;;;0.50;;
42600;SDS011;28229;48.856;9.088;2023-02-03T14:19:10;1.60;;;0.50;;
42600;SDS011;28229;48.856;9.088;2023-02-03T14:21:47;0.50;;;0.50;;
42600;SDS011;28229;48.856;9.088;2023-02-03T14:24:16;0.60;;;0.60;;
42600;SDS011;28229;48.856;9.088;2023-02-03T14:26:45;0.50;;;0.50;;
42600;SDS011;28229;48.856;9.088;2023-02-03T14:29:24;0.50;;;0.50;;
42600;SDS011;28229;48.856;9.088;2023-02-03T14:31:57;0.57;;;0.50;;
42600;SDS011;28229;48.856;9.088;2023-02-03T14:34:27;0.60;;;0.60;;
42600;SDS011;28229;48.856;9.088;2023-02-03T14:36:55;0.60;;;0.60;;
42600;SDS011;28229;48.856;9.088;2023-02-03T14:39:26;0.73;;;0.60;;
42600;SDS011;28229;48.856;9.088;2023-02-03T14:42:02;1.40;;;0.73;;
42600;SDS011;28229;48.856;9.088;2023-02-03T14:44:43;0.97;;;0.57;;
42600;SDS011;28229;48.856;9.088;2023-02-03T14:50:15;0.80;;;0.53;;
42600;SDS011;28229;48.856;9.088;2023-02-03T14:55:44;0.40;;;0.40;;
42600;SDS011;28229;48.856;9.088;2023-02-03T14:58:48;0.50;;;0.50;;
42600;SDS011;28229;48.856;9.088;2023-02-03T15:01:23;0.50;;;0.50;;
42600;SDS011;28229;48.856;9.088;2023-02-03T15:06:39;0.57;;;0.57;;
42600;SDS011;28229;48.856;9.088;2023-02-03T15:09:18;1.03;;;0.50;;
42600;SDS011;28229;48.856;9.088;2023-02-03T15:11:46;1.03;;;0.50;;
42600;SDS011;28229;48.856;9.088;2023-02-03T15:14:14;0.47;;;0.40;;
42600;SDS011;28229;48.856;9.088;2023-02-03T15:16:53;0.80;;;0.50;;
42600;SDS011;28229;48.856;9.088;2023-02-03T15:19:23;1.63;;;0.60;;
42600;SDS011;28229;48.856;9.088;2023-02-03T15:21:51;0.73;;;0.60;;
42600;SDS011;28229;48.856;9.088;2023-02-03T15:24:19;0.77;;;0.60;;
42600;SDS011;28229;48.856;9.088;2023-02-03T15:26:52;0.80;;;0.60;;
42600;SDS011;28229;48.856;9.088;2023-02-03T15:29:25;0.87;;;0.40;;
42600;SDS011;28229;48.856;9.088;2023-02-03T15:31:56;0.60;;;0.60;;
42600;SDS011;28229;48.856;9.088;2023-02-03T15:34:46;0.67;;;0.67;;
42600;SDS011;28229;48.856;9.088;2023-02-03T15:40:05;0.60;;;0.60;;
42600;SDS011;28229;48.856;9.088;2023-02-03T15:42:38;1.03;;;0.50;;
42600;SDS011;28229;48.856;9.088;2023-02-03T15:45:29;0.50;;;0.50;;
42600;SDS011;28229;48.856;9.088;2023-02-03T15:48:06;0.80;;;0.80;;
42600;SDS011;28229;48.856;9.088;2023-02-03T15:53:22;0.60;;;0.60;;
42600;SDS011;28229;48.856;9.088;2023-02-03T15:55:53;0.50;;;0.50;;
42600;SDS011;28229;48.856;9.088;2023-02-03T15:58:28;0.70;;;0.70;;
42600;SDS011;28229;48.856;9.088;2023-02-03T16:00:56;0.60;;;0.60;;
42600;SDS011;28229;48.856;9.088;2023-02-03T16:03:36;0.57;;;0.57;;
42600;SDS011;28229;48.856;9.088;2023-02-03T16:06:10;0.33;;;0.33;;
42600;SDS011;28229;48.856;9.088;2023-02-03T16:08:45;0.60;;;0.60;;
42600;SDS011;28229;48.856;9.088;2023-02-03T16:14:03;0.70;;;0.70;;
42600;SDS011;28229;48.856;9.088;2023-02-03T16:19:13;0.60;;;0.60;;
42600;SDS011;28229;48.856;9.088;2023-02-03T16:35:54;1.27;;;0.70;;
42600;SDS011;28229;48.856;9.088;2023-02-03T16:38:44;0.73;;;0.70;;
42600;SDS011;28229;48.856;9.088;2023-02-03T16:41:29;0.77;;;0.70;;
42600;SDS011;28229;48.856;9.088;2023-02-03T16:44:15;0.53;;;0.50;;
42600;SDS011;28229;48.856;9.088;2023-02-03T16:47:00;0.50;;;0.50;;
42600;SDS011;28229;48.856;9.088;2023-02-03T16:49:45;0.70;;;0.70;;
42600;SDS011;28229;48.856;9.088;2023-02-03T16:52:31;0.63;;;0.60;;
42600;SDS011;28229;48.856;9.088;2023-02-03T16:54:57;0.70;;;0.70;;
42600;SDS011;28229;48.856;9.088;2023-02-03T16:57:23;1.33;;;0.60;;
42600;SDS011;28229;48.856;9.088;2023-02-03T16:59:50;0.60;;;0.60;;
42600;SDS011;28229;48.856;9.088;2023-02-03T17:02:16;0.47;;;0.47;;
42600;SDS011;28229;48.856;9.088;2023-02-03T17:04:42;0.67;;;0.67;;
42600;SDS011;28229;48.856;9.088;2023-02-03T17:07:09;0.60;;;0.60;;
42600;SDS011;28229;48.856;9.088;2023-02-03T17:09:35;0.60;;;0.60;;
42600;SDS011;28229;48.856;9.088;2023-02-03T17:12:01;0.70;;;0.70;;
42600;SDS011;28229;48.856;9.088;2023-02-03T17:14:28;0.70;;;0.70;;
42600;SDS011;28229;48.856;9.088;2023-02-03T17:16:55;0.97;;;0.70;;
42600;SDS011;28229;48.856;9.088;2023-02-03T17:19:21;0.97;;;0.70;;
42600;SDS011;28229;48.856;9.088;2023-02-03T17:21:48;0.70;;;0.70;;
42600;SDS011;28229;48.856;9.088;2023-02-03T17:24:15;1.23;;;0.90;;
42600;SDS011;28229;48.856;9.088;2023-02-03T17:26:41;0.70;;;0.70;;
42600;SDS011;28229;48.856;9.088;2023-02-03T17:29:08;0.77;;;0.77;;
42600;SDS011;28229;48.856;9.088;2023-02-03T17:31:35;0.80;;;0.80;;
42600;SDS011;28229;48.856;9.088;2023-02-03T17:34:01;1.00;;;1.00;;
42600;SDS011;28229;48.856;9.088;2023-02-03T17:36:27;0.63;;;0.63;;
42600;SDS011;28229;48.856;9.088;2023-02-03T17:38:54;0.70;;;0.70;;
42600;SDS011;28229;48.856;9.088;2023-02-03T17:41:38;0.70;;;0.70;;
42600;SDS011;28229;48.856;9.088;2023-02-03T17:44:04;0.90;;;0.90;;
42600;SDS011;28229;48.856;9.088;2023-02-03T17:46:30;0.80;;;0.80;;
42600;SDS011;28229;48.856;9.088;2023-02-03T17:48:56;0.80;;;0.80;;
42600;SDS011;28229;48.856;9.088;2023-02-03T17:51:23;0.90;;;0.90;;
42600;SDS011;28229;48.856;9.088;2023-02-03T17:53:51;0.70;;;0.70;;
42600;SDS011;28229;48.856;9.088;2023-02-03T17:56:19;0.80;;;0.80;;
42600;SDS011;28229;48.856;9.088;2023-02-03T17:58:46;0.80;;;0.80;;
42600;SDS011;28229;48.856;9.088;2023-02-03T18:01:16;0.93;;;0.90;;